createdAt,value
2018-03-30T00:00:04.627Z,48.20
2018-03-30T00:00:26.682Z,48.20
2018-03-30T00:00:48.797Z,48.20
2018-03-30T00:01:10.853Z,48.20
2018-03-30T00:01:33.670Z,48.20
2018-03-30T00:01:55.724Z,48.20
2018-03-30T00:02:18.031Z,48.20
2018-03-30T00:02:40.844Z,48.20
2018-03-30T00:03:02.907Z,48.20
2018-03-30T00:03:24.990Z,48.20
2018-03-30T00:03:47.826Z,48.30
2018-03-30T00:04:10.644Z,48.20
2018-03-30T00:04:32.702Z,48.20
2018-03-30T00:04:54.833Z,48.80
2018-03-30T00:05:16.889Z,48.30
2018-03-30T00:05:38.960Z,48.20
2018-03-30T00:06:01.007Z,48.30
2018-03-30T00:06:23.053Z,48.20
2018-03-30T00:06:45.107Z,48.30
2018-03-30T00:07:07.134Z,48.30
2018-03-30T00:07:29.187Z,48.20
2018-03-30T00:07:51.260Z,48.30
2018-03-30T00:08:13.321Z,48.30
2018-03-30T00:08:35.518Z,48.30
2018-03-30T00:08:57.572Z,48.30
2018-03-30T00:09:19.634Z,48.30
2018-03-30T00:09:41.777Z,48.30
2018-03-30T00:10:03.845Z,48.30
2018-03-30T00:10:25.934Z,48.30
2018-03-30T00:10:53.629Z,48.30
2018-03-30T00:11:21.336Z,48.30
2018-03-30T00:11:43.389Z,48.30
2018-03-30T00:12:05.438Z,48.30
2018-03-30T00:12:27.520Z,48.30
2018-03-30T00:12:49.601Z,48.30
2018-03-30T00:13:11.670Z,48.30
2018-03-30T00:13:33.747Z,48.30
2018-03-30T00:13:55.826Z,48.30
2018-03-30T00:14:17.894Z,48.30
2018-03-30T00:14:39.986Z,48.30
2018-03-30T00:15:02.057Z,48.30
2018-03-30T00:15:24.128Z,48.30
2018-03-30T00:15:46.236Z,48.30
2018-03-30T00:16:08.295Z,48.30
2018-03-30T00:16:31.123Z,48.30
2018-03-30T00:16:53.988Z,48.30
2018-03-30T00:17:16.045Z,48.30
2018-03-30T00:17:38.097Z,48.30
2018-03-30T00:18:00.915Z,48.30
2018-03-30T00:18:22.969Z,48.30
2018-03-30T00:18:45.034Z,48.30
2018-03-30T00:19:07.103Z,48.30
2018-03-30T00:19:29.159Z,48.40
2018-03-30T00:19:51.247Z,48.40
2018-03-30T00:20:13.337Z,48.40
2018-03-30T00:20:36.175Z,48.30
2018-03-30T00:20:59.025Z,48.30
2018-03-30T00:21:21.089Z,48.30
2018-03-30T00:21:43.139Z,48.30
2018-03-30T00:22:05.999Z,48.40
2018-03-30T00:22:28.090Z,48.40
2018-03-30T00:22:50.908Z,48.40
2018-03-30T00:23:12.981Z,48.40
2018-03-30T00:23:35.149Z,48.40
2018-03-30T00:23:57.214Z,48.40
2018-03-30T00:24:19.295Z,48.60
2018-03-30T00:24:42.118Z,48.20
2018-03-30T00:25:04.166Z,48.20
2018-03-30T00:25:26.216Z,48.40
2018-03-30T00:25:48.341Z,48.40
2018-03-30T00:26:10.450Z,48.40
2018-03-30T00:26:32.525Z,48.40
2018-03-30T00:26:55.409Z,49.00
2018-03-30T00:27:17.462Z,48.40
2018-03-30T00:27:39.544Z,48.40
2018-03-30T00:28:01.601Z,48.30
2018-03-30T00:28:24.460Z,48.30
2018-03-30T00:28:46.536Z,49.00
2018-03-30T00:29:08.647Z,48.30
2018-03-30T00:29:30.763Z,48.30
2018-03-30T00:29:52.834Z,48.30
2018-03-30T00:30:14.889Z,48.30
2018-03-30T00:30:36.952Z,48.30
2018-03-30T00:30:59.817Z,48.30
2018-03-30T00:31:21.948Z,48.30
2018-03-30T00:31:44.010Z,48.30
2018-03-30T00:32:06.074Z,48.30
2018-03-30T00:32:28.149Z,48.30
2018-03-30T00:32:50.977Z,48.30
2018-03-30T00:33:13.039Z,48.30
2018-03-30T00:33:35.105Z,48.30
2018-03-30T00:33:57.163Z,48.30
2018-03-30T00:34:19.237Z,48.30
2018-03-30T00:34:41.313Z,48.30
2018-03-30T00:35:03.607Z,48.30
2018-03-30T00:35:25.697Z,48.30
2018-03-30T00:35:47.754Z,48.30
2018-03-30T00:36:09.815Z,48.30
2018-03-30T00:36:31.912Z,48.30
2018-03-30T00:36:53.979Z,48.30
2018-03-30T00:37:16.813Z,48.30
2018-03-30T00:37:38.866Z,48.30
2018-03-30T00:38:00.932Z,48.30
2018-03-30T00:38:22.999Z,48.30
2018-03-30T00:38:45.049Z,48.30
2018-03-30T00:39:07.304Z,48.30
2018-03-30T00:39:29.440Z,48.30
2018-03-30T00:39:52.267Z,48.30
2018-03-30T00:40:15.111Z,48.30
2018-03-30T00:40:38.057Z,48.30
2018-03-30T00:41:00.192Z,48.30
2018-03-30T00:41:22.253Z,48.30
2018-03-30T00:41:44.359Z,48.30
2018-03-30T00:42:06.426Z,48.30
2018-03-30T00:42:28.495Z,48.30
2018-03-30T00:42:50.577Z,48.30
2018-03-30T00:43:12.628Z,48.30
2018-03-30T00:43:34.675Z,48.30
2018-03-30T00:43:56.734Z,48.20
2018-03-30T00:44:18.795Z,48.30
2018-03-30T00:44:40.850Z,48.20
2018-03-30T00:45:02.945Z,48.20
2018-03-30T00:45:25.767Z,48.60
2018-03-30T00:45:47.835Z,48.20
2018-03-30T00:46:09.907Z,48.20
2018-03-30T00:46:31.975Z,48.20
2018-03-30T00:46:54.124Z,48.20
2018-03-30T00:47:16.182Z,48.20
2018-03-30T00:47:39.001Z,48.20
2018-03-30T00:48:01.049Z,48.20
2018-03-30T00:48:23.095Z,48.20
2018-03-30T00:48:45.190Z,48.20
2018-03-30T00:49:07.240Z,48.20
2018-03-30T00:49:29.305Z,48.20
2018-03-30T00:49:51.356Z,48.20
2018-03-30T00:50:13.415Z,48.20
2018-03-30T00:50:35.562Z,48.20
2018-03-30T00:50:57.628Z,48.20
2018-03-30T00:51:19.689Z,48.20
2018-03-30T00:51:42.526Z,48.20
2018-03-30T00:52:05.347Z,48.10
2018-03-30T00:52:28.172Z,48.20
2018-03-30T00:52:50.217Z,48.20
2018-03-30T00:53:13.036Z,48.10
2018-03-30T00:53:35.982Z,48.80
2018-03-30T00:53:58.792Z,48.20
2018-03-30T00:54:21.016Z,48.10
2018-03-30T00:54:43.077Z,48.10
2018-03-30T00:55:05.156Z,48.10
2018-03-30T00:55:27.232Z,48.10
2018-03-30T00:55:49.285Z,48.20
2018-03-30T00:56:11.333Z,48.10
2018-03-30T00:56:33.480Z,48.10
2018-03-30T00:56:55.542Z,48.10
2018-03-30T00:57:17.600Z,48.10
2018-03-30T00:57:39.663Z,48.20
2018-03-30T00:58:01.733Z,48.20
2018-03-30T00:58:23.803Z,48.10
2018-03-30T00:58:45.861Z,48.10
2018-03-30T00:59:07.917Z,48.10
2018-03-30T00:59:29.977Z,48.10
2018-03-30T00:59:52.800Z,48.10
2018-03-30T01:00:14.854Z,48.20
2018-03-30T01:00:36.928Z,48.20
2018-03-30T01:00:59.002Z,48.10
2018-03-30T01:01:21.074Z,48.10
2018-03-30T01:01:43.144Z,48.10
2018-03-30T01:02:05.198Z,48.10
2018-03-30T01:02:27.265Z,48.10
2018-03-30T01:02:49.330Z,48.10
2018-03-30T01:03:11.418Z,48.10
2018-03-30T01:03:33.473Z,48.10
2018-03-30T01:03:55.529Z,48.10
2018-03-30T01:04:17.787Z,48.50
2018-03-30T01:04:39.855Z,48.10
2018-03-30T01:05:01.890Z,48.10
2018-03-30T01:05:23.958Z,48.10
2018-03-30T01:05:46.017Z,48.10
2018-03-30T01:06:08.089Z,48.10
2018-03-30T01:06:30.169Z,48.10
2018-03-30T01:06:52.400Z,48.10
2018-03-30T01:07:14.461Z,48.10
2018-03-30T01:07:36.525Z,48.10
2018-03-30T01:07:58.585Z,48.10
2018-03-30T01:08:20.647Z,48.10
2018-03-30T01:08:42.691Z,48.10
2018-03-30T01:09:04.758Z,48.10
2018-03-30T01:09:27.576Z,48.10
2018-03-30T01:09:49.628Z,48.10
2018-03-30T01:10:11.708Z,48.10
2018-03-30T01:10:33.768Z,48.10
2018-03-30T01:10:55.877Z,48.10
2018-03-30T01:11:18.058Z,48.10
2018-03-30T01:11:40.109Z,48.10
2018-03-30T01:12:02.167Z,48.10
2018-03-30T01:12:24.397Z,48.10
2018-03-30T01:12:46.447Z,48.10
2018-03-30T01:13:09.270Z,48.10
2018-03-30T01:13:31.329Z,48.10
2018-03-30T01:13:53.385Z,48.10
2018-03-30T01:14:15.449Z,48.10
2018-03-30T01:14:37.512Z,48.10
2018-03-30T01:14:59.573Z,48.10
2018-03-30T01:15:22.397Z,48.10
2018-03-30T01:15:44.450Z,48.10
2018-03-30T01:16:06.538Z,48.10
2018-03-30T01:16:29.359Z,48.10
2018-03-30T01:16:51.404Z,48.10
2018-03-30T01:17:14.225Z,48.00
2018-03-30T01:17:37.065Z,48.10
2018-03-30T01:17:59.983Z,48.00
2018-03-30T01:18:22.055Z,48.00
2018-03-30T01:18:44.105Z,48.00
2018-03-30T01:19:06.213Z,48.00
2018-03-30T01:19:28.388Z,48.00
2018-03-30T01:19:50.436Z,48.00
2018-03-30T01:20:12.489Z,48.00
2018-03-30T01:20:34.531Z,48.00
2018-03-30T01:20:57.382Z,48.10
2018-03-30T01:21:19.441Z,48.10
2018-03-30T01:21:41.495Z,48.00
2018-03-30T01:22:04.319Z,48.10
2018-03-30T01:22:26.371Z,48.00
2018-03-30T01:22:48.446Z,48.10
2018-03-30T01:23:10.530Z,48.00
2018-03-30T01:23:32.620Z,48.00
2018-03-30T01:23:54.713Z,48.00
2018-03-30T01:24:17.531Z,48.10
2018-03-30T01:24:39.726Z,48.00
2018-03-30T01:25:01.776Z,48.00
2018-03-30T01:25:23.848Z,48.00
2018-03-30T01:25:45.909Z,47.50
2018-03-30T01:26:07.986Z,48.00
2018-03-30T01:26:30.036Z,48.00
2018-03-30T01:26:52.081Z,48.00
2018-03-30T01:27:14.897Z,48.00
2018-03-30T01:27:36.943Z,48.00
2018-03-30T01:27:59.001Z,48.00
2018-03-30T01:28:21.053Z,48.00
2018-03-30T01:28:43.092Z,48.10
2018-03-30T01:29:06.012Z,48.00
2018-03-30T01:29:28.831Z,48.10
2018-03-30T01:29:50.879Z,48.00
2018-03-30T01:30:13.708Z,48.00
2018-03-30T01:30:36.527Z,48.00
2018-03-30T01:30:58.614Z,48.00
2018-03-30T01:31:20.682Z,47.70
2018-03-30T01:31:43.506Z,48.00
2018-03-30T01:32:06.328Z,48.10
2018-03-30T01:32:28.390Z,48.00
2018-03-30T01:32:50.466Z,48.10
2018-03-30T01:33:13.314Z,48.10
2018-03-30T01:33:36.226Z,48.00
2018-03-30T01:33:58.289Z,48.00
2018-03-30T01:34:20.351Z,48.00
2018-03-30T01:34:42.423Z,48.00
2018-03-30T01:35:04.482Z,48.10
2018-03-30T01:35:26.543Z,48.00
2018-03-30T01:35:49.368Z,48.10
2018-03-30T01:36:12.232Z,48.10
2018-03-30T01:36:34.286Z,48.10
2018-03-30T01:36:56.421Z,48.10
2018-03-30T01:37:18.468Z,48.00
2018-03-30T01:37:41.293Z,48.00
2018-03-30T01:38:04.121Z,48.00
2018-03-30T01:38:26.177Z,48.00
2018-03-30T01:38:48.224Z,48.00
2018-03-30T01:39:10.314Z,48.00
2018-03-30T01:39:32.368Z,48.00
2018-03-30T01:39:54.440Z,48.00
2018-03-30T01:40:16.501Z,48.00
2018-03-30T01:40:38.568Z,48.00
2018-03-30T01:41:00.645Z,47.90
2018-03-30T01:41:22.706Z,48.00
2018-03-30T01:41:44.752Z,48.00
2018-03-30T01:42:06.810Z,48.00
2018-03-30T01:42:29.031Z,47.90
2018-03-30T01:42:51.083Z,48.00
2018-03-30T01:43:13.140Z,47.90
2018-03-30T01:43:35.206Z,47.90
2018-03-30T01:43:57.252Z,47.90
2018-03-30T01:44:19.304Z,47.90
2018-03-30T01:44:41.364Z,47.90
2018-03-30T01:45:03.428Z,47.90
2018-03-30T01:45:25.501Z,47.90
2018-03-30T01:45:47.612Z,47.90
2018-03-30T01:46:09.690Z,48.00
2018-03-30T01:46:31.739Z,47.90
2018-03-30T01:46:54.588Z,48.00
2018-03-30T01:47:16.636Z,48.00
2018-03-30T01:47:38.692Z,48.00
2018-03-30T01:48:01.518Z,48.60
2018-03-30T01:48:23.591Z,47.90
2018-03-30T01:48:45.654Z,47.90
2018-03-30T01:49:07.704Z,47.90
2018-03-30T01:49:30.123Z,47.90
2018-03-30T01:49:52.955Z,47.90
2018-03-30T01:50:15.855Z,47.90
2018-03-30T01:50:37.909Z,47.90
2018-03-30T01:51:00.744Z,48.00
2018-03-30T01:51:23.597Z,48.00
2018-03-30T01:51:45.652Z,47.90
2018-03-30T01:52:07.797Z,47.90
2018-03-30T01:52:29.861Z,47.90
2018-03-30T01:52:51.931Z,47.50
2018-03-30T01:53:13.993Z,48.00
2018-03-30T01:53:36.069Z,48.00
2018-03-30T01:53:58.248Z,48.00
2018-03-30T01:54:20.302Z,48.00
2018-03-30T01:54:42.363Z,48.00
2018-03-30T01:55:04.425Z,48.00
2018-03-30T01:55:26.481Z,48.00
2018-03-30T01:55:48.536Z,47.90
2018-03-30T01:56:10.607Z,48.00
2018-03-30T01:56:33.430Z,48.00
2018-03-30T01:56:55.489Z,48.00
2018-03-30T01:57:17.545Z,48.00
2018-03-30T01:57:39.591Z,48.00
2018-03-30T01:58:02.410Z,48.00
2018-03-30T01:58:24.489Z,48.00
2018-03-30T01:58:46.544Z,47.90
2018-03-30T01:59:08.600Z,47.90
2018-03-30T01:59:30.656Z,47.80
2018-03-30T01:59:52.707Z,48.00
2018-03-30T02:00:15.678Z,48.00
2018-03-30T02:00:37.725Z,47.90
2018-03-30T02:00:59.814Z,48.00
2018-03-30T02:01:22.186Z,48.00
2018-03-30T02:01:44.241Z,48.00
2018-03-30T02:02:06.326Z,48.00
2018-03-30T02:02:28.412Z,47.90
2018-03-30T02:02:50.472Z,48.00
2018-03-30T02:03:13.288Z,48.00
2018-03-30T02:03:35.361Z,47.90
2018-03-30T02:03:57.420Z,48.00
2018-03-30T02:04:19.597Z,47.90
2018-03-30T02:04:41.693Z,48.00
2018-03-30T02:05:03.793Z,47.90
2018-03-30T02:05:25.906Z,48.00
2018-03-30T02:05:48.001Z,48.00
2018-03-30T02:06:10.058Z,48.00
2018-03-30T02:06:32.881Z,48.00
2018-03-30T02:06:54.945Z,48.00
2018-03-30T02:07:16.999Z,48.30
2018-03-30T02:07:39.043Z,48.00
2018-03-30T02:08:01.880Z,48.00
2018-03-30T02:08:24.703Z,48.00
2018-03-30T02:08:46.766Z,48.00
2018-03-30T02:09:08.820Z,48.00
2018-03-30T02:09:30.905Z,48.00
2018-03-30T02:09:52.965Z,48.00
2018-03-30T02:10:15.014Z,48.00
2018-03-30T02:10:37.077Z,48.00
2018-03-30T02:10:59.137Z,48.00
2018-03-30T02:11:21.960Z,48.00
2018-03-30T02:11:44.790Z,48.00
2018-03-30T02:12:06.854Z,48.00
2018-03-30T02:12:28.897Z,48.00
2018-03-30T02:12:50.953Z,48.00
2018-03-30T02:13:13.793Z,48.00
2018-03-30T02:13:36.652Z,48.00
2018-03-30T02:13:58.734Z,48.00
2018-03-30T02:14:20.784Z,48.00
2018-03-30T02:14:42.885Z,48.00
2018-03-30T02:15:05.708Z,48.00
2018-03-30T02:15:28.527Z,48.00
2018-03-30T02:15:50.627Z,48.00
2018-03-30T02:16:12.723Z,48.00
2018-03-30T02:16:34.775Z,48.00
2018-03-30T02:16:56.823Z,48.00
2018-03-30T02:17:19.708Z,48.10
2018-03-30T02:17:41.762Z,48.00
2018-03-30T02:18:03.811Z,47.50
2018-03-30T02:18:25.880Z,47.70
2018-03-30T02:18:47.933Z,48.00
2018-03-30T02:19:10.762Z,48.00
2018-03-30T02:19:33.579Z,48.00
2018-03-30T02:19:55.786Z,48.00
2018-03-30T02:20:17.847Z,48.00
2018-03-30T02:20:39.896Z,48.00
2018-03-30T02:21:02.016Z,48.00
2018-03-30T02:21:24.139Z,48.00
2018-03-30T02:21:46.245Z,48.00
2018-03-30T02:22:08.364Z,48.60
2018-03-30T02:22:30.416Z,48.00
2018-03-30T02:22:52.470Z,48.00
2018-03-30T02:23:14.528Z,48.00
2018-03-30T02:23:36.583Z,48.00
2018-03-30T02:23:59.412Z,47.60
2018-03-30T02:24:21.489Z,48.00
2018-03-30T02:24:43.558Z,48.00
2018-03-30T02:25:06.391Z,48.00
2018-03-30T02:25:29.225Z,48.20
2018-03-30T02:25:51.275Z,48.00
2018-03-30T02:26:13.353Z,48.00
2018-03-30T02:26:35.425Z,48.00
2018-03-30T02:26:57.486Z,48.00
2018-03-30T02:27:19.552Z,48.00
2018-03-30T02:27:41.637Z,47.90
2018-03-30T02:28:04.456Z,48.00
2018-03-30T02:28:26.637Z,47.90
2018-03-30T02:28:48.727Z,48.00
2018-03-30T02:29:10.794Z,48.00
2018-03-30T02:29:32.840Z,48.00
2018-03-30T02:29:55.660Z,48.00
2018-03-30T02:30:17.730Z,47.90
2018-03-30T02:30:39.778Z,47.90
2018-03-30T02:31:01.906Z,48.00
2018-03-30T02:31:23.984Z,47.90
2018-03-30T02:31:46.028Z,47.90
2018-03-30T02:32:08.162Z,48.00
2018-03-30T02:32:30.257Z,47.90
2018-03-30T02:32:52.311Z,47.90
2018-03-30T02:33:14.365Z,47.90
2018-03-30T02:33:36.420Z,48.00
2018-03-30T02:33:58.685Z,47.90
2018-03-30T02:34:20.762Z,47.90
2018-03-30T02:34:42.822Z,47.90
2018-03-30T02:35:04.904Z,47.90
2018-03-30T02:35:27.114Z,47.90
2018-03-30T02:35:49.993Z,47.90
2018-03-30T02:36:12.826Z,47.90
2018-03-30T02:36:35.647Z,47.90
2018-03-30T02:36:57.854Z,47.90
2018-03-30T02:37:19.930Z,47.90
2018-03-30T02:37:41.984Z,47.90
2018-03-30T02:38:04.038Z,47.90
2018-03-30T02:38:26.858Z,47.90
2018-03-30T02:38:49.686Z,47.90
2018-03-30T02:39:11.742Z,47.90
2018-03-30T02:39:33.894Z,48.10
2018-03-30T02:39:55.918Z,47.80
2018-03-30T02:40:17.968Z,47.80
2018-03-30T02:40:40.050Z,47.80
2018-03-30T02:41:02.130Z,47.80
2018-03-30T02:41:24.221Z,47.80
2018-03-30T02:41:47.050Z,47.80
2018-03-30T02:42:09.938Z,47.30
2018-03-30T02:42:32.007Z,47.80
2018-03-30T02:42:54.832Z,47.80
2018-03-30T02:43:16.881Z,47.80
2018-03-30T02:43:38.942Z,47.80
2018-03-30T02:44:01.003Z,47.80
2018-03-30T02:44:23.819Z,47.80
2018-03-30T02:44:46.644Z,47.80
2018-03-30T02:45:08.704Z,47.70
2018-03-30T02:45:30.759Z,47.70
2018-03-30T02:45:52.825Z,47.70
2018-03-30T02:46:15.667Z,47.80
2018-03-30T02:46:38.488Z,47.80
2018-03-30T02:47:01.319Z,47.80
2018-03-30T02:47:24.137Z,47.70
2018-03-30T02:47:46.190Z,47.70
2018-03-30T02:48:08.246Z,47.70
2018-03-30T02:48:30.300Z,47.70
2018-03-30T02:48:52.354Z,47.70
2018-03-30T02:49:14.414Z,47.90
2018-03-30T02:49:36.478Z,47.70
2018-03-30T02:49:58.520Z,47.70
2018-03-30T02:50:20.574Z,47.70
2018-03-30T02:50:42.636Z,47.70
2018-03-30T02:51:04.686Z,47.70
2018-03-30T02:51:26.752Z,47.80
2018-03-30T02:51:49.566Z,47.80
2018-03-30T02:52:11.750Z,47.70
2018-03-30T02:52:33.802Z,47.70
2018-03-30T02:52:55.860Z,47.70
2018-03-30T02:53:17.965Z,47.80
2018-03-30T02:53:40.791Z,47.70
2018-03-30T02:54:03.618Z,47.70
2018-03-30T02:54:26.441Z,47.70
2018-03-30T02:54:48.503Z,47.70
2018-03-30T02:55:10.554Z,47.70
2018-03-30T02:55:32.616Z,47.70
2018-03-30T02:55:55.437Z,47.70
2018-03-30T02:56:17.559Z,47.70
2018-03-30T02:56:40.395Z,47.70
2018-03-30T02:57:03.208Z,47.70
2018-03-30T02:57:25.270Z,47.70
2018-03-30T02:57:47.323Z,47.70
2018-03-30T02:58:09.387Z,47.70
2018-03-30T02:58:32.227Z,47.70
2018-03-30T02:58:55.145Z,47.70
2018-03-30T02:59:17.191Z,47.70
2018-03-30T02:59:39.281Z,47.30
2018-03-30T03:00:01.342Z,47.70
2018-03-30T03:00:23.401Z,47.70
2018-03-30T03:00:45.451Z,47.70
2018-03-30T03:01:08.250Z,47.70
2018-03-30T03:01:30.335Z,47.70
2018-03-30T03:01:52.389Z,47.70
2018-03-30T03:02:14.448Z,47.70
2018-03-30T03:02:36.503Z,47.70
2018-03-30T03:02:58.557Z,47.70
2018-03-30T03:03:20.608Z,47.70
2018-03-30T03:03:42.675Z,47.70
2018-03-30T03:04:04.734Z,47.70
2018-03-30T03:04:26.795Z,47.70
2018-03-30T03:04:48.847Z,47.70
2018-03-30T03:05:11.687Z,47.70
2018-03-30T03:05:34.516Z,47.70
2018-03-30T03:05:57.338Z,47.70
2018-03-30T03:06:19.449Z,47.70
2018-03-30T03:06:41.564Z,47.70
2018-03-30T03:07:03.622Z,47.70
2018-03-30T03:07:26.448Z,47.70
2018-03-30T03:07:49.270Z,47.70
2018-03-30T03:08:11.341Z,47.70
2018-03-30T03:08:33.401Z,47.70
2018-03-30T03:08:55.452Z,47.70
2018-03-30T03:09:17.519Z,47.70
2018-03-30T03:09:39.581Z,47.70
2018-03-30T03:10:02.413Z,47.70
2018-03-30T03:10:24.502Z,47.70
2018-03-30T03:10:46.565Z,47.70
2018-03-30T03:11:08.617Z,47.70
2018-03-30T03:11:30.688Z,47.70
2018-03-30T03:11:52.739Z,47.70
2018-03-30T03:12:14.824Z,47.70
2018-03-30T03:12:36.867Z,47.70
2018-03-30T03:12:58.927Z,47.70
2018-03-30T03:13:20.976Z,47.70
2018-03-30T03:13:43.024Z,47.70
2018-03-30T03:14:05.124Z,47.70
2018-03-30T03:14:27.191Z,47.70
2018-03-30T03:14:49.248Z,47.70
2018-03-30T03:15:11.326Z,47.70
2018-03-30T03:15:33.386Z,47.70
2018-03-30T03:15:55.447Z,47.70
2018-03-30T03:16:17.470Z,47.70
2018-03-30T03:16:39.553Z,47.70
2018-03-30T03:17:01.600Z,47.70
2018-03-30T03:17:24.420Z,47.70
2018-03-30T03:17:46.468Z,47.90
2018-03-30T03:18:08.526Z,47.70
2018-03-30T03:18:30.584Z,47.70
2018-03-30T03:18:52.638Z,47.70
2018-03-30T03:19:15.487Z,47.70
2018-03-30T03:19:37.540Z,47.70
2018-03-30T03:19:59.603Z,47.70
2018-03-30T03:20:22.431Z,47.70
2018-03-30T03:20:44.484Z,47.70
2018-03-30T03:21:06.554Z,47.70
2018-03-30T03:21:28.609Z,47.70
2018-03-30T03:21:50.676Z,47.70
2018-03-30T03:22:12.740Z,47.70
2018-03-30T03:22:34.788Z,47.70
2018-03-30T03:22:56.852Z,47.70
2018-03-30T03:23:19.679Z,48.30
2018-03-30T03:23:41.810Z,47.70
2018-03-30T03:24:04.657Z,47.70
2018-03-30T03:24:27.482Z,47.70
2018-03-30T03:24:50.310Z,47.70
2018-03-30T03:25:12.372Z,47.70
2018-03-30T03:25:34.427Z,47.70
2018-03-30T03:25:56.483Z,47.70
2018-03-30T03:26:18.518Z,47.60
2018-03-30T03:26:40.601Z,47.70
2018-03-30T03:27:03.424Z,47.80
2018-03-30T03:27:26.254Z,47.70
2018-03-30T03:27:48.305Z,47.70
2018-03-30T03:28:11.118Z,47.70
2018-03-30T03:28:33.170Z,47.70
2018-03-30T03:28:55.234Z,47.70
2018-03-30T03:29:17.290Z,47.60
2018-03-30T03:29:40.108Z,47.70
2018-03-30T03:30:02.938Z,47.70
2018-03-30T03:30:24.987Z,47.70
2018-03-30T03:30:47.064Z,47.60
2018-03-30T03:31:09.146Z,47.70
2018-03-30T03:31:31.219Z,48.00
2018-03-30T03:31:54.042Z,47.70
2018-03-30T03:32:16.097Z,47.70
2018-03-30T03:32:38.228Z,47.70
2018-03-30T03:33:00.244Z,47.70
2018-03-30T03:33:22.304Z,47.70
2018-03-30T03:33:44.357Z,47.70
2018-03-30T03:34:06.410Z,47.70
2018-03-30T03:34:28.456Z,47.70
2018-03-30T03:34:50.499Z,47.70
2018-03-30T03:35:13.328Z,47.70
2018-03-30T03:35:36.145Z,47.70
2018-03-30T03:35:58.316Z,47.70
2018-03-30T03:36:20.379Z,47.70
2018-03-30T03:36:42.451Z,47.70
2018-03-30T03:37:04.505Z,47.70
2018-03-30T03:37:26.554Z,47.70
2018-03-30T03:37:49.359Z,47.70
2018-03-30T03:38:11.420Z,47.70
2018-03-30T03:38:33.476Z,47.70
2018-03-30T03:38:55.588Z,47.70
2018-03-30T03:39:17.649Z,47.60
2018-03-30T03:39:40.474Z,47.70
2018-03-30T03:40:03.306Z,48.20
2018-03-30T03:40:25.382Z,47.60
2018-03-30T03:40:47.510Z,47.70
2018-03-30T03:41:09.562Z,47.70
2018-03-30T03:41:31.657Z,47.70
2018-03-30T03:41:53.705Z,48.30
2018-03-30T03:42:16.528Z,48.00
2018-03-30T03:42:38.574Z,47.60
2018-03-30T03:43:01.409Z,47.70
2018-03-30T03:43:24.241Z,47.70
2018-03-30T03:43:47.058Z,47.70
2018-03-30T03:44:09.119Z,47.60
2018-03-30T03:44:31.181Z,47.70
2018-03-30T03:44:53.247Z,47.70
2018-03-30T03:45:15.305Z,47.70
2018-03-30T03:45:37.511Z,47.70
2018-03-30T03:45:59.557Z,47.70
2018-03-30T03:46:21.616Z,47.70
2018-03-30T03:46:43.858Z,47.70
2018-03-30T03:47:05.922Z,47.60
2018-03-30T03:47:28.009Z,47.60
2018-03-30T03:47:50.322Z,47.60
2018-03-30T03:48:12.374Z,47.70
2018-03-30T03:48:34.435Z,47.60
2018-03-30T03:48:56.510Z,47.60
2018-03-30T03:49:18.566Z,47.60
2018-03-30T03:49:40.638Z,47.70
2018-03-30T03:50:02.696Z,47.60
2018-03-30T03:50:24.756Z,47.60
2018-03-30T03:50:46.815Z,47.70
2018-03-30T03:51:09.638Z,47.70
2018-03-30T03:51:32.473Z,47.60
2018-03-30T03:51:55.295Z,48.00
2018-03-30T03:52:17.343Z,47.60
2018-03-30T03:52:40.166Z,47.70
2018-03-30T03:53:02.998Z,47.70
2018-03-30T03:53:25.823Z,47.70
2018-03-30T03:53:47.882Z,47.60
2018-03-30T03:54:09.950Z,47.60
2018-03-30T03:54:32.019Z,47.60
2018-03-30T03:54:54.079Z,47.60
2018-03-30T03:55:16.152Z,47.60
2018-03-30T03:55:38.268Z,47.60
2018-03-30T03:56:00.332Z,47.60
2018-03-30T03:56:22.402Z,47.50
2018-03-30T03:56:44.494Z,47.60
2018-03-30T03:57:07.310Z,47.60
2018-03-30T03:57:29.530Z,47.50
2018-03-30T03:57:51.557Z,47.50
2018-03-30T03:58:13.617Z,47.60
2018-03-30T03:58:35.686Z,47.60
2018-03-30T03:58:57.737Z,47.50
2018-03-30T03:59:19.801Z,47.50
2018-03-30T03:59:41.865Z,47.50
2018-03-30T04:00:04.690Z,47.60
2018-03-30T04:00:27.712Z,47.60
2018-03-30T04:00:49.768Z,47.60
2018-03-30T04:01:11.884Z,47.60
2018-03-30T04:01:33.953Z,47.60
2018-03-30T04:01:56.005Z,47.60
2018-03-30T04:02:18.818Z,47.60
2018-03-30T04:02:40.876Z,47.50
2018-03-30T04:03:02.929Z,47.50
2018-03-30T04:03:24.996Z,47.50
2018-03-30T04:03:47.813Z,47.60
2018-03-30T04:05:49.138Z,47.50
2018-03-30T04:06:11.193Z,47.50
2018-03-30T04:06:33.269Z,47.60
2018-03-30T04:06:55.323Z,47.50
2018-03-30T04:07:18.156Z,47.50
2018-03-30T04:07:40.966Z,47.60
2018-03-30T04:08:03.030Z,47.50
2018-03-30T04:08:25.095Z,47.50
2018-03-30T04:08:47.166Z,47.60
2018-03-30T04:09:09.218Z,47.60
2018-03-30T04:09:31.239Z,47.60
2018-03-30T04:09:53.305Z,47.60
2018-03-30T04:10:15.357Z,47.60
2018-03-30T04:10:37.568Z,47.60
2018-03-30T04:10:59.620Z,47.60
2018-03-30T04:11:21.667Z,48.20
2018-03-30T04:11:44.507Z,47.60
2018-03-30T04:12:06.564Z,47.50
2018-03-30T04:12:28.621Z,47.50
2018-03-30T04:12:50.673Z,47.50
2018-03-30T04:13:12.719Z,47.50
2018-03-30T04:13:34.769Z,47.50
2018-03-30T04:13:56.787Z,47.50
2018-03-30T04:14:18.848Z,47.50
2018-03-30T04:14:40.896Z,47.50
2018-03-30T04:15:02.956Z,47.50
2018-03-30T04:15:25.801Z,47.50
2018-03-30T04:15:47.850Z,47.50
2018-03-30T04:16:09.911Z,47.50
2018-03-30T04:16:32.022Z,47.80
2018-03-30T04:16:54.080Z,47.50
2018-03-30T04:17:16.136Z,47.50
2018-03-30T04:17:38.191Z,47.50
2018-03-30T04:18:01.001Z,47.50
2018-03-30T04:18:23.039Z,47.50
2018-03-30T04:18:45.854Z,47.50
2018-03-30T04:19:07.919Z,47.50
2018-03-30T04:19:30.068Z,47.40
2018-03-30T04:19:52.135Z,47.40
2018-03-30T04:20:14.963Z,47.40
2018-03-30T04:20:37.775Z,47.50
2018-03-30T04:20:59.823Z,47.40
2018-03-30T04:21:22.649Z,47.50
2018-03-30T04:21:45.490Z,47.40
2018-03-30T04:22:08.310Z,47.40
2018-03-30T04:22:30.374Z,47.40
2018-03-30T04:22:52.427Z,47.40
2018-03-30T04:23:14.478Z,47.40
2018-03-30T04:23:37.291Z,47.50
2018-03-30T04:23:59.350Z,47.50
2018-03-30T04:24:21.400Z,47.50
2018-03-30T04:24:43.442Z,47.40
2018-03-30T04:25:05.528Z,47.50
2018-03-30T04:25:27.568Z,47.50
2018-03-30T04:25:49.612Z,47.40
2018-03-30T04:26:12.425Z,47.40
2018-03-30T04:26:34.506Z,47.40
2018-03-30T04:26:56.553Z,47.40
2018-03-30T04:27:18.610Z,47.40
2018-03-30T04:27:40.669Z,47.40
2018-03-30T04:28:02.713Z,47.40
2018-03-30T04:28:24.775Z,47.40
2018-03-30T04:28:46.836Z,47.40
2018-03-30T04:29:08.884Z,47.40
2018-03-30T04:29:31.712Z,47.40
2018-03-30T04:29:54.542Z,47.30
2018-03-30T04:30:16.603Z,47.30
2018-03-30T04:30:38.658Z,47.40
2018-03-30T04:31:00.716Z,47.40
2018-03-30T04:31:22.776Z,47.40
2018-03-30T04:31:44.855Z,47.40
2018-03-30T04:32:06.909Z,47.40
2018-03-30T04:32:28.955Z,47.30
2018-03-30T04:32:51.002Z,47.30
2018-03-30T04:33:13.051Z,47.30
2018-03-30T04:33:35.106Z,47.30
2018-03-30T04:33:57.171Z,47.40
2018-03-30T04:34:19.236Z,47.40
2018-03-30T04:34:42.073Z,47.50
2018-03-30T04:35:04.236Z,47.40
2018-03-30T04:35:26.305Z,47.40
2018-03-30T04:35:48.351Z,47.40
2018-03-30T04:36:11.872Z,47.40
2018-03-30T04:36:34.006Z,47.40
2018-03-30T04:36:56.068Z,47.40
2018-03-30T04:37:18.246Z,47.40
2018-03-30T04:37:40.373Z,47.40
2018-03-30T04:38:03.203Z,47.40
2018-03-30T04:38:26.044Z,47.40
2018-03-30T04:38:48.861Z,47.40
2018-03-30T04:39:10.909Z,47.40
2018-03-30T04:39:33.094Z,47.40
2018-03-30T04:39:55.146Z,47.40
2018-03-30T04:40:17.196Z,47.40
2018-03-30T04:40:39.243Z,47.40
2018-03-30T04:41:01.296Z,47.40
2018-03-30T04:41:23.348Z,47.40
2018-03-30T04:41:45.397Z,47.40
2018-03-30T04:42:07.470Z,47.40
2018-03-30T04:42:29.530Z,47.40
2018-03-30T04:42:51.629Z,47.40
2018-03-30T04:43:13.688Z,47.40
2018-03-30T04:43:36.483Z,47.40
2018-03-30T04:43:58.535Z,47.40
2018-03-30T04:44:21.355Z,47.40
2018-03-30T04:44:43.413Z,47.30
2018-03-30T04:45:05.482Z,47.40
2018-03-30T04:45:27.559Z,47.40
2018-03-30T04:45:49.617Z,47.30
2018-03-30T04:46:11.673Z,47.30
2018-03-30T04:46:34.520Z,47.30
2018-03-30T04:46:56.563Z,47.30
2018-03-30T04:47:19.393Z,47.40
2018-03-30T04:47:41.465Z,47.40
2018-03-30T04:48:04.292Z,47.30